Time;durP1;ratioP1;P1;durP2;ratioP2;P2;SDS_P1;SDS_P2;PMS_P1;PMS_P2;Temp;Humidity;BMP_temperature;BMP_pressure;BME280_temperature;BME280_humidity;BME280_pressure;Samples;Min_cycle;Max_cycle;Signal;HPM_P1;HPM_P2
2021/05/02 00:00:28;;;;;;;5.63;5.23;;;19.10;33.80;;;;;;5032168;28;20403;-74
2021/05/02 00:02:55;;;;;;;6.03;5.53;;;19.00;33.70;;;;;;5031838;28;20415;-74
2021/05/02 00:05:23;;;;;;;6.27;5.77;;;19.00;33.70;;;;;;5031715;28;20420;-74
2021/05/02 00:07:49;;;;;;;6.63;5.67;;;19.10;33.80;;;;;;5031573;28;20444;-74
2021/05/02 00:10:16;;;;;;;6.17;5.67;;;19.00;33.70;;;;;;5031881;28;20416;-73
2021/05/02 00:12:42;;;;;;;6.57;5.50;;;19.00;33.70;;;;;;5031649;28;20449;-73
2021/05/02 00:15:15;;;;;;;5.80;5.30;;;19.00;33.80;;;;;;5031451;28;20462;-73
2021/05/02 00:17:43;;;;;;;4.90;4.57;;;19.00;33.70;;;;;;5031639;28;20439;-74
2021/05/02 00:20:09;;;;;;;6.00;5.50;;;19.00;33.70;;;;;;5031622;28;20419;-74
2021/05/02 00:22:37;;;;;;;6.40;5.80;;;19.00;33.70;;;;;;5030272;28;20438;-74
2021/05/02 00:25:05;;;;;;;7.50;5.13;;;19.00;33.70;;;;;;5031578;28;20407;-74
2021/05/02 00:27:30;;;;;;;6.00;5.43;;;19.00;33.70;;;;;;5031461;28;20776;-74
2021/05/02 00:29:56;;;;;;;7.37;4.73;;;19.00;33.70;;;;;;5031758;28;20416;-74
2021/05/02 00:32:22;;;;;;;5.47;5.07;;;19.00;33.70;;;;;;5032314;28;20673;-74
2021/05/02 00:34:49;;;;;;;6.00;5.50;;;19.00;33.70;;;;;;5035579;28;20211;-74
2021/05/02 00:37:17;;;;;;;5.60;5.20;;;19.00;33.70;;;;;;5035337;28;20407;-73
2021/05/02 00:39:42;;;;;;;5.70;5.20;;;19.00;33.70;;;;;;5035735;28;20459;-74
2021/05/02 00:42:19;;;;;;;5.90;5.30;;;18.90;33.60;;;;;;5035444;28;20905;-74
2021/05/02 00:45:06;;;;;;;6.00;5.40;;;19.00;33.70;;;;;;5035407;28;20187;-74
2021/05/02 00:47:52;;;;;;;5.57;5.13;;;19.00;33.70;;;;;;5035175;28;20411;-74
2021/05/02 00:50:21;;;;;;;5.80;5.30;;;18.90;33.60;;;;;;5033967;28;20423;-74
2021/05/02 00:52:47;;;;;;;5.40;4.90;;;18.90;33.70;;;;;;5033849;28;20427;-74
2021/05/02 00:55:15;;;;;;;5.43;4.93;;;18.90;33.60;;;;;;5034904;28;20986;-74
2021/05/02 00:57:50;;;;;;;5.40;4.90;;;18.90;33.60;;;;;;5035002;28;20192;-74
2021/05/02 01:00:18;;;;;;;4.93;4.53;;;18.90;33.60;;;;;;5033797;28;20410;-74
2021/05/02 01:02:47;;;;;;;5.13;4.73;;;18.90;33.60;;;;;;5034977;28;20400;-73
2021/05/02 01:05:13;;;;;;;5.20;4.67;;;18.90;33.60;;;;;;5033629;28;20415;-73
2021/05/02 01:07:41;;;;;;;5.00;4.60;;;18.90;33.60;;;;;;5034706;28;20427;-74
2021/05/02 01:10:10;;;;;;;5.00;4.67;;;18.90;33.60;;;;;;5034913;28;20971;-74
2021/05/02 01:12:43;;;;;;;5.27;4.83;;;18.90;33.50;;;;;;5034751;28;20403;-74
2021/05/02 01:15:14;;;;;;;5.40;4.90;;;18.90;33.50;;;;;;5034476;28;20478;-74
2021/05/02 01:17:43;;;;;;;5.33;4.93;;;18.90;33.50;;;;;;5033443;28;20518;-74
2021/05/02 01:20:12;;;;;;;4.80;4.50;;;18.90;33.50;;;;;;5034673;28;20408;-74
2021/05/02 01:22:40;;;;;;;6.03;5.43;;;18.90;33.50;;;;;;5034416;28;20447;-74
2021/05/02 01:25:07;;;;;;;4.80;4.40;;;18.90;33.50;;;;;;5034425;28;20410;-74
2021/05/02 01:27:33;;;;;;;4.60;4.13;;;18.90;33.60;;;;;;5034367;28;20416;-74
2021/05/02 01:30:01;;;;;;;5.43;5.03;;;18.90;33.60;;;;;;5034593;28;20485;-74
2021/05/02 01:32:29;;;;;;;4.60;4.30;;;18.80;33.40;;;;;;5034497;28;20207;-74
2021/05/02 01:34:55;;;;;;;4.67;4.27;;;18.90;33.50;;;;;;5032990;28;20459;-74
2021/05/02 01:37:21;;;;;;;4.77;4.40;;;18.90;33.60;;;;;;5034194;28;20787;-74
2021/05/02 01:39:47;;;;;;;5.07;4.67;;;18.80;33.50;;;;;;5034464;28;20411;-74
2021/05/02 01:42:13;;;;;;;5.73;5.33;;;18.90;33.50;;;;;;5034301;28;20576;-74
2021/05/02 01:44:39;;;;;;;4.17;3.97;;;18.80;33.40;;;;;;5034189;28;20565;-74
2021/05/02 01:47:09;;;;;;;4.70;4.40;;;18.90;33.50;;;;;;5033982;28;20189;-74
2021/05/02 01:49:39;;;;;;;4.80;4.40;;;18.90;33.50;;;;;;5033937;28;20855;-74
2021/05/02 01:52:07;;;;;;;4.70;4.40;;;18.80;33.40;;;;;;5034281;28;20423;-74
2021/05/02 01:54:35;;;;;;;4.37;4.07;;;18.80;33.50;;;;;;5032818;28;20459;-74
2021/05/02 01:57:00;;;;;;;4.53;4.23;;;18.80;33.40;;;;;;5033846;28;20438;-73
2021/05/02 01:59:26;;;;;;;4.63;4.33;;;18.80;33.40;;;;;;5033832;28;20517;-74
2021/05/02 02:01:52;;;;;;;4.50;4.13;;;18.80;33.40;;;;;;5033840;28;20639;-74
2021/05/02 02:04:21;;;;;;;4.57;4.20;;;18.80;33.40;;;;;;5033822;28;20499;-74
2021/05/02 02:06:48;;;;;;;4.80;4.50;;;18.80;33.40;;;;;;5033628;28;20171;-74
2021/05/02 02:09:13;;;;;;;4.60;4.20;;;18.80;33.50;;;;;;5033585;28;20823;-73
2021/05/02 02:11:39;;;;;;;4.57;4.27;;;18.80;33.40;;;;;;5033703;28;20433;-74
2021/05/02 02:14:05;;;;;;;5.07;4.33;;;18.80;33.40;;;;;;5033528;28;20208;-74
2021/05/02 02:16:30;;;;;;;4.70;4.40;;;18.80;33.40;;;;;;5033284;28;20171;-74
2021/05/02 02:18:56;;;;;;;5.37;4.30;;;18.80;33.40;;;;;;5033570;28;20250;-74
2021/05/02 02:21:23;;;;;;;4.70;4.40;;;18.80;33.30;;;;;;5032352;28;20620;-74
2021/05/02 02:23:58;;;;;;;5.07;4.70;;;18.80;33.30;;;;;;5033455;28;20259;-74
2021/05/02 02:26:34;;;;;;;4.33;4.03;;;18.80;33.30;;;;;;5033250;28;20407;-74
2021/05/02 02:29:03;;;;;;;4.90;4.60;;;18.70;33.30;;;;;;5033228;28;20441;-74
2021/05/02 02:31:33;;;;;;;4.30;4.03;;;18.70;33.40;;;;;;5033525;28;20403;-74
2021/05/02 02:33:59;;;;;;;4.27;3.90;;;18.70;33.30;;;;;;5033182;28;20451;-74
2021/05/02 02:36:25;;;;;;;5.03;4.63;;;18.70;33.30;;;;;;5033220;28;20789;-74
2021/05/02 02:38:51;;;;;;;4.40;4.10;;;18.70;33.30;;;;;;5033229;28;20442;-74
2021/05/02 02:41:18;;;;;;;5.10;4.70;;;18.70;33.30;;;;;;5033334;28;20635;-73
2021/05/02 02:43:55;;;;;;;4.33;4.03;;;18.70;33.30;;;;;;5033043;28;20454;-74
2021/05/02 02:46:22;;;;;;;4.87;4.40;;;18.70;33.30;;;;;;5032976;28;20415;-73
2021/05/02 02:48:55;;;;;;;4.00;3.70;;;18.70;33.30;;;;;;5032886;28;20427;-74
2021/05/02 02:51:22;;;;;;;4.30;4.00;;;18.70;33.30;;;;;;5033116;28;20478;-74
2021/05/02 02:53:50;;;;;;;4.50;4.20;;;18.70;33.30;;;;;;5032623;28;20451;-74
2021/05/02 02:56:21;;;;;;;4.53;4.23;;;18.70;33.30;;;;;;5032216;28;20443;-74
2021/05/02 02:59:14;;;;;;;4.30;4.00;;;18.70;33.30;;;;;;5032641;28;20428;-74
2021/05/02 03:01:42;;;;;;;4.43;4.13;;;18.70;33.30;;;;;;5032933;28;20415;-74
2021/05/02 03:04:10;;;;;;;5.03;4.73;;;18.70;33.30;;;;;;5032759;28;20404;-74
2021/05/02 03:06:36;;;;;;;4.27;3.97;;;18.70;33.30;;;;;;5032369;28;20960;-74
2021/05/02 03:09:03;;;;;;;4.60;4.30;;;18.70;33.30;;;;;;5032427;28;20435;-74
2021/05/02 03:11:28;;;;;;;4.20;3.90;;;18.70;33.30;;;;;;5032639;28;20407;-74
2021/05/02 03:13:54;;;;;;;4.40;4.10;;;18.70;33.30;;;;;;5032401;28;20969;-74
2021/05/02 03:16:24;;;;;;;4.67;4.37;;;18.70;33.20;;;;;;5031261;28;20168;-73
2021/05/02 03:19:07;;;;;;;4.70;4.30;;;18.70;33.20;;;;;;5032468;28;20428;-74
2021/05/02 03:21:44;;;;;;;3.70;3.50;;;18.70;33.30;;;;;;5032782;28;20400;-73
2021/05/02 03:24:14;;;;;;;4.10;3.90;;;18.70;33.30;;;;;;5032528;28;20411;-74
2021/05/02 03:26:40;;;;;;;4.33;4.13;;;18.60;33.20;;;;;;5032292;28;20416;-74
2021/05/02 03:29:09;;;;;;;4.23;4.03;;;18.70;33.30;;;;;;5032398;28;20921;-73
2021/05/02 03:31:38;;;;;;;4.30;4.10;;;18.60;33.20;;;;;;5032327;28;20553;-73
2021/05/02 03:34:06;;;;;;;4.23;4.03;;;18.70;33.20;;;;;;5032247;28;20455;-74
2021/05/02 03:36:45;;;;;;;4.50;4.10;;;18.60;33.10;;;;;;5032171;28;20427;-74
2021/05/02 03:39:11;;;;;;;4.60;4.30;;;18.60;33.20;;;;;;5032436;28;20526;-74
2021/05/02 03:41:37;;;;;;;4.83;4.53;;;18.70;33.30;;;;;;5032408;28;20921;-74
2021/05/02 03:44:03;;;;;;;4.37;4.07;;;18.80;33.10;;;;;;5032271;28;20496;-74
2021/05/02 03:46:30;;;;;;;4.03;3.83;;;18.90;33.00;;;;;;5032105;28;20165;-74
2021/05/02 03:49:01;;;;;;;4.77;4.40;;;19.00;32.70;;;;;;5032046;28;20431;-74
2021/05/02 03:51:29;;;;;;;3.90;3.70;;;19.10;32.50;;;;;;5032195;28;20438;-73
2021/05/02 03:53:56;;;;;;;3.47;3.27;;;19.30;32.40;;;;;;5032292;28;20534;-74
2021/05/02 03:56:34;;;;;;;4.50;4.10;;;19.50;32.20;;;;;;5032734;28;20412;-74
2021/05/02 03:59:15;;;;;;;3.77;3.57;;;19.60;31.80;;;;;;5034558;28;20438;-73
2021/05/02 04:01:45;;;;;;;3.83;3.63;;;19.70;31.70;;;;;;5036085;28;20462;-73
2021/05/02 04:04:13;;;;;;;4.10;3.80;;;19.80;31.60;;;;;;5033331;28;20442;-73
2021/05/02 04:06:39;;;;;;;3.80;3.57;;;19.80;31.40;;;;;;5031935;28;20955;-74
2021/05/02 04:09:09;;;;;;;3.73;3.53;;;19.90;31.40;;;;;;5035795;28;20485;-74
2021/05/02 04:11:35;;;;;;;3.70;3.50;;;19.90;31.30;;;;;;5034755;28;20419;-74
2021/05/02 04:14:05;;;;;;;3.63;3.40;;;19.90;31.30;;;;;;5035797;28;21026;-74
2021/05/02 04:16:31;;;;;;;3.90;3.60;;;19.90;31.20;;;;;;5036010;28;20540;-74
2021/05/02 04:18:56;;;;;;;3.97;3.60;;;20.00;31.20;;;;;;5035882;28;20547;-74
2021/05/02 04:21:22;;;;;;;3.57;3.30;;;20.00;31.20;;;;;;5035951;28;20165;-74
2021/05/02 04:23:48;;;;;;;3.20;3.10;;;20.00;31.20;;;;;;5034669;28;20176;-74
2021/05/02 04:26:13;;;;;;;3.63;3.43;;;20.00;31.30;;;;;;5035730;28;20439;-74
2021/05/02 04:28:39;;;;;;;3.50;3.20;;;19.90;31.10;;;;;;5035574;28;20203;-74
2021/05/02 04:31:05;;;;;;;4.03;3.83;;;20.00;31.30;;;;;;5035664;28;20169;-74
2021/05/02 04:33:31;;;;;;;3.77;3.50;;;19.90;31.20;;;;;;5035429;28;20192;-74
2021/05/02 04:35:56;;;;;;;3.73;3.43;;;19.90;31.30;;;;;;5035343;28;20418;-74
2021/05/02 04:38:22;;;;;;;3.80;3.60;;;19.90;31.30;;;;;;5045810;28;20202;-73
2021/05/02 04:40:47;;;;;;;3.83;3.63;;;19.90;31.40;;;;;;5044675;28;20185;-74
2021/05/02 04:43:13;;;;;;;3.87;3.67;;;19.90;31.40;;;;;;5045018;28;20227;-73
2021/05/02 04:45:39;;;;;;;3.47;3.17;;;19.90;31.40;;;;;;5038571;28;20168;-73
2021/05/02 04:48:05;;;;;;;3.50;3.33;;;19.90;32.10;;;;;;5035680;28;20193;-74
2021/05/02 04:50:31;;;;;;;3.37;3.17;;;19.90;31.40;;;;;;5035145;28;20173;-73
2021/05/02 04:52:59;;;;;;;3.40;3.20;;;19.80;31.40;;;;;;5038631;28;20500;-73
2021/05/02 04:55:25;;;;;;;3.77;3.57;;;19.80;31.40;;;;;;5045889;28;20180;-73
2021/05/02 04:57:51;;;;;;;3.50;3.30;;;19.80;31.50;;;;;;5036872;28;20770;-74
2021/05/02 05:00:17;;;;;;;3.73;3.50;;;19.80;31.50;;;;;;5035374;28;20439;-73
2021/05/02 05:02:43;;;;;;;3.67;3.37;;;19.80;31.60;;;;;;5040737;28;20204;-74
2021/05/02 05:05:09;;;;;;;3.80;3.60;;;19.70;31.50;;;;;;5034575;28;20937;-73
2021/05/02 05:07:34;;;;;;;3.63;3.43;;;19.80;31.60;;;;;;5035690;28;20196;-74
2021/05/02 05:10:00;;;;;;;3.60;3.40;;;19.70;31.70;;;;;;5034936;28;20255;-74
2021/05/02 05:12:25;;;;;;;3.43;3.23;;;19.70;31.70;;;;;;5025955;28;20319;-75
2021/05/02 05:14:51;;;;;;;3.43;3.23;;;19.70;31.70;;;;;;5027837;28;20215;-74
2021/05/02 05:17:16;;;;;;;3.50;3.30;;;19.60;31.70;;;;;;5027339;28;20542;-75
2021/05/02 05:19:41;;;;;;;3.40;3.30;;;19.60;31.80;;;;;;5024251;28;20667;-74
2021/05/02 05:22:07;;;;;;;3.10;2.90;;;19.60;31.90;;;;;;5024782;28;20173;-74
2021/05/02 05:24:32;;;;;;;3.70;3.50;;;19.50;31.90;;;;;;5025734;28;20259;-74
2021/05/02 05:26:58;;;;;;;3.33;3.13;;;19.50;32.00;;;;;;5041031;28;20176;-75
2021/05/02 05:29:24;;;;;;;3.20;3.00;;;19.50;32.10;;;;;;5052950;28;20775;-74
2021/05/02 05:31:49;;;;;;;3.67;3.47;;;19.50;32.10;;;;;;5053385;28;20259;-74
2021/05/02 05:34:16;;;;;;;4.23;3.90;;;19.40;32.20;;;;;;5054501;28;20231;-72
2021/05/02 05:36:41;;;;;;;4.60;4.30;;;19.40;32.40;;;;;;5054233;28;20165;-72
2021/05/02 05:39:07;;;;;;;5.03;4.73;;;19.50;32.60;;;;;;5054418;28;20837;-72
2021/05/02 05:41:33;;;;;;;6.87;5.13;;;19.50;32.50;;;;;;5054472;28;20179;-73
2021/05/02 05:43:58;;;;;;;5.50;5.00;;;19.60;32.60;;;;;;5054251;28;20183;-72
2021/05/02 05:46:24;;;;;;;5.93;5.53;;;19.60;32.60;;;;;;5052860;28;20426;-72
2021/05/02 05:48:49;;;;;;;5.60;5.30;;;19.60;32.50;;;;;;5054133;28;20654;-73
2021/05/02 05:51:15;;;;;;;5.77;5.17;;;19.60;32.70;;;;;;5054094;28;20192;-73
2021/05/02 05:53:41;;;;;;;5.07;4.77;;;19.60;32.70;;;;;;5054219;28;20295;-73
2021/05/02 05:56:06;;;;;;;5.43;5.13;;;19.60;32.70;;;;;;5053957;28;20183;-73
2021/05/02 05:58:32;;;;;;;5.67;5.27;;;19.60;32.60;;;;;;5052694;28;20546;-73
2021/05/02 06:00:58;;;;;;;7.83;6.30;;;19.60;32.60;;;;;;5054047;28;20172;-73
2021/05/02 06:03:24;;;;;;;5.30;4.90;;;19.60;32.60;;;;;;5053868;28;20176;-73
2021/05/02 06:05:50;;;;;;;5.57;5.07;;;19.60;32.70;;;;;;5053587;28;20421;-73
2021/05/02 06:08:16;;;;;;;6.30;5.70;;;19.60;32.80;;;;;;5053702;28;20231;-73
2021/05/02 06:10:42;;;;;;;6.23;5.70;;;19.70;32.80;;;;;;5053734;28;20488;-74
2021/05/02 06:13:08;;;;;;;5.87;5.47;;;19.60;32.70;;;;;;5052443;28;20187;-74
2021/05/02 06:15:33;;;;;;;6.87;5.23;;;19.70;32.80;;;;;;5053514;28;20427;-74
2021/05/02 06:17:59;;;;;;;5.27;4.87;;;19.70;32.60;;;;;;5053492;28;20430;-73
2021/05/02 06:20:25;;;;;;;6.17;5.50;;;19.80;32.60;;;;;;5053452;28;20168;-73
2021/05/02 06:22:52;;;;;;;6.03;5.53;;;19.70;32.60;;;;;;5052266;28;20172;-73
2021/05/02 06:25:17;;;;;;;6.60;6.00;;;19.80;32.50;;;;;;5053348;28;20811;-73
2021/05/02 06:27:43;;;;;;;6.30;5.70;;;19.80;33.00;;;;;;5046686;28;20447;-73
2021/05/02 06:30:09;;;;;;;5.90;5.30;;;19.80;32.70;;;;;;5037559;28;20230;-73
2021/05/02 06:32:36;;;;;;;6.17;5.73;;;19.80;32.80;;;;;;5039132;28;20230;-74
2021/05/02 06:35:03;;;;;;;9.90;6.93;;;19.70;33.00;;;;;;5038670;28;20830;-74
2021/05/02 06:37:28;;;;;;;7.67;6.73;;;19.60;32.60;;;;;;5032486;28;20412;-74
2021/05/02 06:39:55;;;;;;;10.97;9.97;;;19.60;32.50;;;;;;5033857;28;20910;-74
2021/05/02 06:42:21;;;;;;;6.60;6.10;;;19.50;31.60;;;;;;5035792;28;20670;-72
2021/05/02 06:44:46;;;;;;;7.73;7.03;;;19.50;32.30;;;;;;5034084;28;20438;-74
2021/05/02 06:47:12;;;;;;;8.27;7.07;;;19.60;32.00;;;;;;5044849;28;20185;-73
2021/05/02 06:49:38;;;;;;;7.70;7.00;;;19.60;31.70;;;;;;5029767;28;20208;-72
2021/05/02 06:52:04;;;;;;;7.20;6.70;;;19.60;31.60;;;;;;5031387;28;20173;-72
2021/05/02 06:54:29;;;;;;;12.93;7.00;;;19.60;31.40;;;;;;5031990;28;20725;-72
2021/05/02 06:56:55;;;;;;;7.07;6.50;;;19.70;31.60;;;;;;5043933;28;20207;-73
2021/05/02 06:59:20;;;;;;;8.23;7.20;;;19.70;31.50;;;;;;5032507;28;20203;-74
2021/05/02 07:01:46;;;;;;;7.23;6.63;;;19.70;31.40;;;;;;5032689;28;20186;-73
2021/05/02 07:04:12;;;;;;;6.70;6.20;;;19.70;31.40;;;;;;5041751;28;20575;-72
2021/05/02 07:06:37;;;;;;;6.67;6.27;;;19.70;31.60;;;;;;5040499;28;20231;-72
2021/05/02 07:09:04;;;;;;;7.40;6.90;;;19.70;31.40;;;;;;5032352;28;20335;-73
2021/05/02 07:11:30;;;;;;;6.30;5.90;;;19.70;31.60;;;;;;5032640;28;20179;-73
2021/05/02 07:13:55;;;;;;;6.97;6.37;;;19.80;31.70;;;;;;5032966;28;20458;-72
2021/05/02 07:16:21;;;;;;;6.33;5.90;;;19.70;31.70;;;;;;5032300;28;20908;-72
2021/05/02 07:18:49;;;;;;;6.83;5.97;;;19.70;31.70;;;;;;5030613;28;20239;-73
2021/05/02 07:21:17;;;;;;;6.40;5.90;;;19.70;31.90;;;;;;5030983;28;20427;-72
2021/05/02 07:23:45;;;;;;;6.03;5.63;;;19.70;31.90;;;;;;5032591;28;20408;-74
2021/05/02 07:26:11;;;;;;;6.13;5.63;;;19.70;32.20;;;;;;5028142;28;20434;-73
2021/05/02 07:28:37;;;;;;;7.73;7.00;;;19.70;32.20;;;;;;5037835;28;20439;-73
2021/05/02 07:31:02;;;;;;;7.77;6.97;;;19.70;32.20;;;;;;5021063;28;20173;-72
2021/05/02 07:33:28;;;;;;;9.03;6.53;;;19.70;32.20;;;;;;5025441;28;20322;-74
2021/05/02 07:35:55;;;;;;;7.07;6.37;;;19.70;32.20;;;;;;5031938;28;20173;-73
2021/05/02 07:38:21;;;;;;;7.80;7.10;;;19.80;32.40;;;;;;5034286;28;20204;-73
2021/05/02 07:40:47;;;;;;;8.47;6.70;;;19.80;32.30;;;;;;5031961;28;20494;-73
2021/05/02 07:43:12;;;;;;;9.00;7.33;;;19.70;32.20;;;;;;5042540;28;20191;-72
2021/05/02 07:45:38;;;;;;;10.43;7.20;;;19.80;32.20;;;;;;5041002;28;20211;-74
2021/05/02 07:48:04;;;;;;;8.30;7.60;;;19.80;32.20;;;;;;5033337;28;20193;-72
2021/05/02 07:50:29;;;;;;;8.67;7.77;;;19.90;32.30;;;;;;5036949;28;20208;-72
2021/05/02 07:52:55;;;;;;;7.20;6.50;;;19.90;32.20;;;;;;5032350;28;20415;-71
2021/05/02 07:55:20;;;;;;;7.83;7.10;;;19.90;32.30;;;;;;5031259;28;20240;-72
2021/05/02 07:57:46;;;;;;;7.63;6.97;;;19.90;32.20;;;;;;5039219;28;20196;-72
2021/05/02 08:00:12;;;;;;;9.63;7.33;;;20.00;33.10;;;;;;5033939;28;20236;-73
2021/05/02 08:02:41;;;;;;;7.70;6.87;;;20.00;32.40;;;;;;5039448;28;20172;-73
2021/05/02 08:05:11;;;;;;;8.30;7.13;;;20.00;32.30;;;;;;5040150;28;20960;-72
2021/05/02 08:07:37;;;;;;;9.57;7.83;;;20.00;33.10;;;;;;5034228;28;20431;-73
2021/05/02 08:10:03;;;;;;;12.60;7.20;;;20.00;32.20;;;;;;5035171;28;20419;-71
2021/05/02 08:12:29;;;;;;;7.80;7.10;;;20.00;32.40;;;;;;5032375;28;20177;-70
2021/05/02 08:14:55;;;;;;;10.20;6.70;;;20.00;32.20;;;;;;5031428;28;20470;-70
2021/05/02 08:17:21;;;;;;;7.27;6.70;;;20.00;32.40;;;;;;5031905;28;20631;-71
2021/05/02 08:19:47;;;;;;;8.43;6.20;;;20.00;32.30;;;;;;5031947;28;20897;-71
2021/05/02 08:22:13;;;;;;;6.73;6.07;;;20.00;32.30;;;;;;5022872;28;20729;-70
2021/05/02 08:24:39;;;;;;;7.37;6.80;;;20.00;32.10;;;;;;5031763;28;20184;-70
2021/05/02 08:27:05;;;;;;;6.63;6.10;;;20.00;32.10;;;;;;5023556;28;20933;-71
2021/05/02 08:29:30;;;;;;;6.90;6.13;;;20.00;32.20;;;;;;5011587;28;20193;-71
2021/05/02 08:31:56;;;;;;;7.13;6.50;;;20.00;32.10;;;;;;5012253;28;20197;-70
2021/05/02 08:34:21;;;;;;;6.50;6.00;;;20.00;32.30;;;;;;5011862;28;20280;-72
2021/05/02 08:36:47;;;;;;;8.07;6.40;;;20.00;32.50;;;;;;5011425;28;20201;-70
2021/05/02 08:39:12;;;;;;;9.17;6.90;;;20.00;32.30;;;;;;5011783;28;20201;-71
2021/05/02 08:41:38;;;;;;;18.50;8.10;;;20.00;32.30;;;;;;5011945;28;20531;-70
2021/05/02 08:44:04;;;;;;;8.43;6.93;;;20.00;32.50;;;;;;5027561;28;20360;-71
2021/05/02 08:46:30;;;;;;;7.83;7.07;;;20.00;32.70;;;;;;5049132;28;20270;-68
2021/05/02 08:48:56;;;;;;;6.57;6.07;;;20.00;32.60;;;;;;5049066;28;20435;-71
2021/05/02 08:51:22;;;;;;;7.33;6.13;;;20.00;32.80;;;;;;5051235;28;20778;-75
2021/05/02 08:53:48;;;;;;;6.87;6.30;;;20.00;32.70;;;;;;5053085;28;20450;-71
2021/05/02 08:56:14;;;;;;;8.93;7.47;;;20.00;32.60;;;;;;5042645;28;20430;-71
2021/05/02 08:58:40;;;;;;;8.60;7.90;;;20.00;32.70;;;;;;5020684;28;20197;-72
2021/05/02 09:01:06;;;;;;;7.73;7.13;;;20.00;32.70;;;;;;5015696;28;20418;-70
2021/05/02 09:03:43;;;;;;;7.83;7.00;;;20.00;32.90;;;;;;5015315;28;20173;-71
2021/05/02 09:06:28;;;;;;;8.03;7.20;;;20.00;32.90;;;;;;5013754;28;20255;-72
2021/05/02 09:08:57;;;;;;;8.93;7.70;;;20.00;33.10;;;;;;5015624;28;20432;-71
2021/05/02 09:11:55;;;;;;;7.20;6.60;;;20.00;33.10;;;;;;5015398;28;20427;-72
2021/05/02 09:14:22;;;;;;;7.47;6.77;;;19.90;33.10;;;;;;5015131;28;20475;-71
2021/05/02 09:16:52;;;;;;;8.00;7.20;;;19.90;33.10;;;;;;5014887;28;20489;-72
2021/05/02 09:19:19;;;;;;;7.00;6.50;;;19.90;33.30;;;;;;5014807;28;21053;-72
2021/05/02 09:21:45;;;;;;;7.00;6.40;;;19.90;33.10;;;;;;5014647;28;20409;-72
2021/05/02 09:24:20;;;;;;;6.20;5.60;;;19.90;32.70;;;;;;5014897;28;20412;-71
2021/05/02 09:27:06;;;;;;;8.13;7.40;;;20.00;33.00;;;;;;5014614;28;20416;-73
2021/05/02 09:29:32;;;;;;;7.30;6.60;;;20.00;32.70;;;;;;5014449;28;20439;-69
2021/05/02 09:31:59;;;;;;;7.83;6.83;;;20.00;32.60;;;;;;5014797;28;20416;-71
2021/05/02 09:34:25;;;;;;;6.60;5.70;;;20.10;32.70;;;;;;5014631;28;20452;-71
2021/05/02 09:37:02;;;;;;;7.00;6.40;;;20.10;32.60;;;;;;5012964;28;20785;-70
2021/05/02 09:39:50;;;;;;;6.20;5.70;;;20.10;32.60;;;;;;5013243;28;20486;-70
2021/05/02 09:42:24;;;;;;;6.60;6.10;;;20.10;32.60;;;;;;5014567;28;20408;-71
2021/05/02 09:44:51;;;;;;;6.50;6.00;;;20.10;32.60;;;;;;5014402;28;20412;-71
2021/05/02 09:47:34;;;;;;;7.17;6.67;;;20.10;32.50;;;;;;5014827;28;20443;-70
2021/05/02 09:50:13;;;;;;;6.90;6.30;;;20.10;32.60;;;;;;5013317;28;20424;-71
2021/05/02 09:53:02;;;;;;;7.70;6.43;;;20.10;32.70;;;;;;5014309;28;20411;-71
2021/05/02 09:55:34;;;;;;;6.53;6.00;;;20.10;32.80;;;;;;5013103;28;20464;-70
2021/05/02 09:58:19;;;;;;;6.03;5.53;;;20.00;32.90;;;;;;5014114;28;20428;-72
2021/05/02 10:00:50;;;;;;;8.13;5.97;;;20.00;32.80;;;;;;5041308;28;20416;-71
2021/05/02 10:03:18;;;;;;;7.03;6.50;;;20.00;32.70;;;;;;5038975;28;20793;-71
2021/05/02 10:06:02;;;;;;;7.00;6.40;;;20.00;32.70;;;;;;5032493;28;20499;-73
2021/05/02 10:08:33;;;;;;;6.23;5.73;;;20.00;32.70;;;;;;5034153;28;20864;-71
2021/05/02 10:11:03;;;;;;;6.70;6.00;;;20.00;32.70;;;;;;5034142;28;20411;-72
2021/05/02 10:13:29;;;;;;;6.57;6.07;;;20.00;32.80;;;;;;5031875;28;21036;-72
2021/05/02 10:15:58;;;;;;;6.53;6.07;;;20.00;32.90;;;;;;5038119;28;20443;-72
2021/05/02 10:18:24;;;;;;;6.70;6.20;;;20.00;32.90;;;;;;5033610;28;20435;-72
2021/05/02 10:20:56;;;;;;;6.77;6.17;;;20.00;32.90;;;;;;5035145;28;20498;-77
2021/05/02 10:23:22;;;;;;;6.30;5.90;;;20.00;33.00;;;;;;5030476;28;20481;-73
2021/05/02 10:25:50;;;;;;;7.60;6.67;;;20.00;33.00;;;;;;5035381;28;20423;-72
2021/05/02 10:28:22;;;;;;;7.10;6.57;;;20.00;33.10;;;;;;5035760;28;20674;-74
2021/05/02 10:30:52;;;;;;;6.77;6.20;;;20.00;33.60;;;;;;5033510;28;20408;-73
2021/05/02 10:33:39;;;;;;;7.40;6.70;;;20.00;33.90;;;;;;5040288;28;20423;-73
2021/05/02 10:36:07;;;;;;;8.30;6.70;;;19.90;34.00;;;;;;5025189;28;20807;-73
2021/05/02 10:38:54;;;;;;;8.70;6.60;;;19.80;34.20;;;;;;5033018;28;20432;-74
2021/05/02 10:41:34;;;;;;;6.87;6.43;;;19.70;34.30;;;;;;5032119;28;20805;-75
2021/05/02 10:44:12;;;;;;;6.63;6.03;;;19.70;34.50;;;;;;5038796;28;20415;-73
2021/05/02 10:46:43;;;;;;;7.23;6.50;;;19.70;34.50;;;;;;5039562;28;20503;-74
2021/05/02 10:49:29;;;;;;;6.77;6.27;;;19.60;34.30;;;;;;5032887;28;20548;-73
2021/05/02 10:51:59;;;;;;;7.23;5.70;;;19.60;34.30;;;;;;5035297;28;20811;-73
2021/05/02 10:54:43;;;;;;;6.27;5.77;;;19.60;34.20;;;;;;5032965;28;20455;-73
2021/05/02 10:57:32;;;;;;;5.90;5.50;;;19.60;34.10;;;;;;5031389;28;20450;-74
2021/05/02 11:00:24;;;;;;;6.30;5.80;;;19.50;34.10;;;;;;5032780;28;20404;-74
2021/05/02 11:02:49;;;;;;;6.70;6.20;;;19.60;34.20;;;;;;5033458;28;20458;-74
2021/05/02 11:05:18;;;;;;;5.70;5.30;;;19.60;34.10;;;;;;5032064;28;20955;-73
2021/05/02 11:07:46;;;;;;;5.33;4.97;;;19.60;34.10;;;;;;5033084;28;20191;-72
2021/05/02 11:10:17;;;;;;;6.23;5.47;;;19.60;34.40;;;;;;5036371;28;20504;-73
2021/05/02 11:12:43;;;;;;;6.00;5.63;;;19.60;34.30;;;;;;5028361;28;20495;-73
2021/05/02 11:15:27;;;;;;;5.43;5.13;;;19.60;34.40;;;;;;5032945;28;20463;-73
2021/05/02 11:17:54;;;;;;;6.00;5.60;;;19.60;34.30;;;;;;5033068;28;21007;-73
2021/05/02 11:20:45;;;;;;;5.87;5.47;;;19.50;34.20;;;;;;5030884;28;20465;-72
2021/05/02 11:23:11;;;;;;;6.03;5.63;;;19.50;34.20;;;;;;5033431;28;20415;-75
2021/05/02 11:25:47;;;;;;;5.50;5.00;;;19.50;34.20;;;;;;5044199;28;20429;-71
2021/05/02 11:28:33;;;;;;;6.67;5.17;;;19.50;34.20;;;;;;5029618;28;20195;-72
2021/05/02 11:30:59;;;;;;;5.73;5.20;;;19.50;34.10;;;;;;5032568;28;20410;-72
2021/05/02 11:33:25;;;;;;;6.53;5.87;;;19.50;34.80;;;;;;5030930;28;20419;-72
2021/05/02 11:35:53;;;;;;;5.30;4.90;;;19.50;34.10;;;;;;5032787;28;20473;-72
2021/05/02 11:38:21;;;;;;;5.37;4.97;;;19.50;34.20;;;;;;5032507;28;20438;-72
2021/05/02 11:40:46;;;;;;;5.60;5.20;;;19.50;34.20;;;;;;5032220;28;20914;-72
2021/05/02 11:43:31;;;;;;;6.73;6.00;;;19.50;34.20;;;;;;5031774;28;20410;-71
2021/05/02 11:45:59;;;;;;;6.70;6.07;;;19.50;34.30;;;;;;5031952;28;20196;-71
2021/05/02 11:48:44;;;;;;;5.77;5.30;;;19.50;34.30;;;;;;5032078;28;20800;-72
2021/05/02 11:51:26;;;;;;;6.53;5.83;;;19.50;34.40;;;;;;5034742;28;20425;-71
2021/05/02 11:53:59;;;;;;;5.13;4.83;;;19.50;34.50;;;;;;5036365;28;20478;-71
2021/05/02 11:56:29;;;;;;;6.10;5.70;;;19.50;34.50;;;;;;5034538;28;20848;-73
2021/05/02 11:59:06;;;;;;;5.10;4.80;;;19.60;34.50;;;;;;5032389;28;20445;-73
2021/05/02 12:01:33;;;;;;;5.97;5.47;;;19.60;34.30;;;;;;5031064;28;20866;-73
2021/05/02 12:04:07;;;;;;;5.60;5.10;;;19.60;34.10;;;;;;5031371;28;20416;-71
2021/05/02 12:06:35;;;;;;;6.03;5.57;;;19.70;34.10;;;;;;5030870;28;20771;-71
2021/05/02 12:09:09;;;;;;;5.50;5.20;;;19.70;34.10;;;;;;5040149;28;20431;-72
2021/05/02 12:11:35;;;;;;;6.07;5.60;;;19.70;34.10;;;;;;5031562;28;20411;-72
2021/05/02 12:14:01;;;;;;;5.93;5.43;;;19.70;34.10;;;;;;5031862;28;20465;-71
2021/05/02 12:16:29;;;;;;;5.70;5.30;;;19.70;34.10;;;;;;5031659;28;20170;-72
2021/05/02 12:19:01;;;;;;;5.40;5.10;;;19.70;34.20;;;;;;5031392;28;20192;-72
2021/05/02 12:21:41;;;;;;;5.80;5.40;;;19.60;34.00;;;;;;5037804;28;20947;-71
2021/05/02 12:24:12;;;;;;;6.13;5.70;;;19.60;34.20;;;;;;5024210;28;20775;-72
2021/05/02 12:26:45;;;;;;;5.70;5.40;;;19.60;34.40;;;;;;5031126;28;20414;-72
2021/05/02 12:29:14;;;;;;;5.80;5.40;;;19.60;34.50;;;;;;5033885;28;21129;-71
2021/05/02 12:31:40;;;;;;;6.13;5.63;;;19.60;34.50;;;;;;5035529;28;20460;-71
2021/05/02 12:34:11;;;;;;;6.00;5.60;;;19.60;34.50;;;;;;5033946;28;20454;-71
2021/05/02 12:36:37;;;;;;;5.30;5.00;;;19.60;34.70;;;;;;5033965;28;20446;-72
2021/05/02 12:39:13;;;;;;;6.17;5.57;;;19.60;34.60;;;;;;5036097;28;20443;-72
2021/05/02 12:41:40;;;;;;;5.80;5.40;;;19.60;34.70;;;;;;5045472;28;20414;-72
2021/05/02 12:44:14;;;;;;;5.70;5.40;;;19.60;34.70;;;;;;5033957;28;20515;-72
2021/05/02 12:46:43;;;;;;;6.93;6.10;;;19.60;34.70;;;;;;5035062;28;20407;-71
2021/05/02 12:49:11;;;;;;;5.30;5.00;;;19.60;34.70;;;;;;5034921;28;20427;-71
2021/05/02 12:51:36;;;;;;;5.13;4.93;;;19.60;34.70;;;;;;5035126;28;20411;-71
2021/05/02 12:54:11;;;;;;;5.87;5.53;;;19.60;34.70;;;;;;5034883;28;20451;-73